Time,TemperatureF,DewpointF,PressureIn,WindDirection,WindDirectionDegrees,WindSpeedMPH,WindSpeedGustMPH,Humidity,HourlyPrecipIn,Conditions,Clouds,dailyrainin,SoftwareType,DateUTC
2013-05-04 00:00:00,51.2,47.0,30.33,NE,44,2.0,4.0,84,0.00,,,0.00,weatherlink.com 1.10,2013-05-04 04:00:00,
2013-05-04 00:16:00,51.3,46.0,30.32,NE,39,2.0,8.0,83,0.00,,,0.00,weatherlink.com 1.10,2013-05-04 04:16:00,
2013-05-04 00:31:00,51.3,47.0,30.32,East,81,6.0,9.0,84,0.00,,,0.00,weatherlink.com 1.10,2013-05-04 04:31:00,
2013-05-04 00:46:00,51.1,46.0,30.32,NE,39,2.0,7.0,83,0.00,,,0.00,weatherlink.com 1.10,2013-05-04 04:46:00,
2013-05-04 01:01:00,51.2,47.0,30.31,North,359,1.0,6.0,84,0.00,,,0.00,weatherlink.com 1.10,2013-05-04 05:01:00,
2013-05-04 01:16:00,51.1,46.0,30.31,ENE,61,1.0,6.0,84,0.00,,,0.00,weatherlink.com 1.10,2013-05-04 05:16:00,
2013-05-04 01:46:00,50.9,47.0,30.29,NE,41,2.0,5.0,86,0.00,,,0.00,weatherlink.com 1.10,2013-05-04 05:46:00,
2013-05-04 02:01:00,51.0,47.0,30.29,NE,41,2.0,3.0,87,0.00,,,0.00,weatherlink.com 1.10,2013-05-04 06:01:00,
2013-05-04 02:16:00,51.2,48.0,30.28,NNE,27,1.0,4.0,87,0.00,,,0.00,weatherlink.com 1.10,2013-05-04 06:16:00,
2013-05-04 02:31:00,51.0,47.0,30.27,East,79,1.0,2.0,87,0.00,,,0.00,weatherlink.com 1.10,2013-05-04 06:31:00,
2013-05-04 02:46:00,51.1,47.0,30.27,NE,54,0.0,2.0,87,0.00,,,0.00,weatherlink.com 1.10,2013-05-04 06:46:00,
2013-05-04 03:01:00,51.2,48.0,30.27,East,93,0.0,3.0,88,0.00,,,0.00,weatherlink.com 1.10,2013-05-04 07:01:00,
2013-05-04 03:16:00,51.2,48.0,30.26,ENE,72,1.0,3.0,87,0.00,,,0.00,weatherlink.com 1.10,2013-05-04 07:16:00,
2013-05-04 03:31:00,51.3,48.0,30.26,NE,40,0.0,3.0,87,0.00,,,0.00,weatherlink.com 1.10,2013-05-04 07:31:00,
2013-05-04 03:46:00,51.1,47.0,30.26,ENE,57,1.0,3.0,87,0.00,,,0.00,weatherlink.com 1.10,2013-05-04 07:46:00,
2013-05-04 04:01:00,51.3,48.0,30.26,NE,50,2.0,4.0,88,0.00,,,0.00,weatherlink.com 1.10,2013-05-04 08:01:00,
2013-05-04 04:16:00,50.9,47.0,30.26,NE,40,2.0,4.0,86,0.00,,,0.00,weatherlink.com 1.10,2013-05-04 08:16:00,
2013-05-04 04:31:00,50.9,47.0,30.26,ENE,57,1.0,3.0,87,0.00,,,0.00,weatherlink.com 1.10,2013-05-04 08:31:00,
2013-05-04 04:46:00,50.6,47.0,30.26,North,5,2.0,4.0,87,0.00,,,0.00,weatherlink.com 1.10,2013-05-04 08:46:00,
2013-05-04 05:01:00,50.6,47.0,30.26,NE,51,1.0,2.0,87,0.00,,,0.00,weatherlink.com 1.10,2013-05-04 09:01:00,
2013-05-04 05:16:00,50.6,47.0,30.26,ENE,61,1.0,2.0,87,0.00,,,0.00,weatherlink.com 1.10,2013-05-04 09:16:00,
2013-05-04 05:31:00,50.8,47.0,30.27,ENE,75,1.0,3.0,86,0.00,,,0.00,weatherlink.com 1.10,2013-05-04 09:31:00,
2013-05-04 05:46:00,50.6,47.0,30.27,NE,50,0.0,2.0,87,0.00,,,0.00,weatherlink.com 1.10,2013-05-04 09:46:00,
2013-05-04 06:01:00,50.9,47.0,30.27,NE,44,0.0,3.0,87,0.00,,,0.00,weatherlink.com 1.10,2013-05-04 10:01:00,
2013-05-04 06:16:00,50.7,46.0,30.27,NE,41,2.0,3.0,85,0.00,,,0.00,weatherlink.com 1.10,2013-05-04 10:16:00,
2013-05-04 06:31:00,50.6,46.0,30.28,NNE,33,2.0,2.0,85,0.00,,,0.00,weatherlink.com 1.10,2013-05-04 10:31:00,
2013-05-04 06:46:00,50.8,47.0,30.28,NE,43,2.0,3.0,86,0.00,,,0.00,weatherlink.com 1.10,2013-05-04 10:46:00,
2013-05-04 07:01:00,50.9,47.0,30.28,NE,46,1.0,2.0,85,0.00,,,0.00,weatherlink.com 1.10,2013-05-04 11:01:00,
2013-05-04 07:16:00,51.0,47.0,30.28,NE,56,1.0,2.0,85,0.00,,,0.00,weatherlink.com 1.10,2013-05-04 11:16:00,
2013-05-04 07:31:00,51.0,47.0,30.28,NE,41,1.0,3.0,85,0.00,,,0.00,weatherlink.com 1.10,2013-05-04 11:31:00,
2013-05-04 07:46:00,51.1,46.0,30.28,NE,43,2.0,3.0,84,0.00,,,0.00,weatherlink.com 1.10,2013-05-04 11:46:00,
2013-05-04 08:02:00,51.3,47.0,30.28,NE,44,0.0,3.0,84,0.00,,,0.00,weatherlink.com 1.10,2013-05-04 12:02:00,
2013-05-04 08:32:00,52.1,47.0,30.29,NE,37,1.0,3.0,83,0.00,,,0.00,weatherlink.com 1.10,2013-05-04 12:32:00,
2013-05-04 08:47:00,51.7,46.0,30.29,NE,43,1.0,3.0,82,0.00,,,0.00,weatherlink.com 1.10,2013-05-04 12:47:00,
2013-05-04 09:02:00,51.7,46.0,30.29,NE,46,0.0,3.0,82,0.00,,,0.00,weatherlink.com 1.10,2013-05-04 13:02:00,
2013-05-04 09:17:00,52.4,46.0,30.29,NE,41,1.0,3.0,80,0.00,,,0.00,weatherlink.com 1.10,2013-05-04 13:17:00,
2013-05-04 09:32:00,53.4,47.0,30.28,East,96,0.0,3.0,80,0.00,,,0.00,weatherlink.com 1.10,2013-05-04 13:32:00,
2013-05-04 09:47:00,53.5,47.0,30.28,NE,39,2.0,2.0,78,0.00,,,0.00,weatherlink.com 1.10,2013-05-04 13:47:00,
2013-05-04 10:02:00,53.4,47.0,30.28,NE,36,0.0,3.0,79,0.00,,,0.00,weatherlink.com 1.10,2013-05-04 14:02:00,
2013-05-04 10:17:00,54.2,46.0,30.28,NE,34,1.0,3.0,75,0.00,,,0.00,weatherlink.com 1.10,2013-05-04 14:17:00,
2013-05-04 10:32:00,55.1,47.0,30.28,NNE,27,0.0,3.0,75,0.00,,,0.00,weatherlink.com 1.10,2013-05-04 14:32:00,
2013-05-04 10:47:00,55.6,47.0,30.28,NNE,31,1.0,2.0,74,0.00,,,0.00,weatherlink.com 1.10,2013-05-04 14:47:00,
2013-05-04 11:02:00,56.5,48.0,30.27,NE,36,0.0,2.0,73,0.00,,,0.00,weatherlink.com 1.10,2013-05-04 15:02:00,
2013-05-04 11:17:00,57.2,49.0,30.27,NE,47,1.0,3.0,74,0.00,,,0.00,weatherlink.com 1.10,2013-05-04 15:17:00,
2013-05-04 11:32:00,58.4,49.0,30.26,NNE,22,0.0,3.0,70,0.00,,,0.00,weatherlink.com 1.10,2013-05-04 15:32:00,
2013-05-04 11:47:00,59.3,50.0,30.26,NE,42,0.0,2.0,70,0.00,,,0.00,weatherlink.com 1.10,2013-05-04 15:47:00,
2013-05-04 12:02:00,60.3,50.0,30.26,NE,44,2.0,3.0,68,0.00,,,0.00,weatherlink.com 1.10,2013-05-04 16:02:00,
2013-05-04 12:17:00,60.3,49.0,30.25,West,264,0.0,3.0,67,0.00,,,0.00,weatherlink.com 1.10,2013-05-04 16:17:00,
2013-05-04 12:32:00,61.1,49.0,30.25,SSW,198,1.0,4.0,64,0.00,,,0.00,weatherlink.com 1.10,2013-05-04 16:32:00,
2013-05-04 12:47:00,61.5,49.0,30.25,NE,42,0.0,3.0,64,0.00,,,0.00,weatherlink.com 1.10,2013-05-04 16:47:00,
2013-05-04 13:02:00,62.0,50.0,30.25,SSE,155,0.0,3.0,65,0.00,,,0.00,weatherlink.com 1.10,2013-05-04 17:02:00,
2013-05-04 13:17:00,62.1,49.0,30.24,SSE,150,0.0,2.0,63,0.00,,,0.00,weatherlink.com 1.10,2013-05-04 17:17:00,
2013-05-04 13:32:00,62.9,50.0,30.24,NNE,26,0.0,2.0,62,0.00,,,0.00,weatherlink.com 1.10,2013-05-04 17:32:00,
2013-05-04 13:47:00,63.2,51.0,30.23,NE,53,0.0,4.0,64,0.00,,,0.00,weatherlink.com 1.10,2013-05-04 17:47:00,
2013-05-04 14:02:00,64.2,50.0,30.23,NNE,31,1.0,3.0,60,0.00,,,0.00,weatherlink.com 1.10,2013-05-04 18:02:00,
2013-05-04 14:17:00,64.1,49.0,30.22,NE,38,1.0,3.0,58,0.00,,,0.00,weatherlink.com 1.10,2013-05-04 18:17:00,
2013-05-04 14:32:00,64.3,50.0,30.22,ENE,70,1.0,2.0,60,0.00,,,0.00,weatherlink.com 1.10,2013-05-04 18:32:00,
2013-05-04 14:48:00,65.8,49.0,30.22,ESE,105,2.0,2.0,55,0.00,,,0.00,weatherlink.com 1.10,2013-05-04 18:48:00,
2013-05-04 15:03:00,65.2,50.0,30.21,NNE,18,0.0,2.0,58,0.00,,,0.00,weatherlink.com 1.10,2013-05-04 19:03:00,
2013-05-04 15:18:00,65.4,52.0,30.21,East,89,2.0,2.0,63,0.00,,,0.00,weatherlink.com 1.10,2013-05-04 19:18:00,
2013-05-04 15:33:00,64.5,48.0,30.20,ESE,117,1.0,3.0,56,0.00,,,0.00,weatherlink.com 1.10,2013-05-04 19:33:00,
2013-05-04 15:48:00,64.3,49.0,30.19,East,90,1.0,3.0,59,0.00,,,0.00,weatherlink.com 1.10,2013-05-04 19:48:00,
2013-05-04 16:03:00,65.4,50.0,30.19,SE,130,1.0,2.0,57,0.00,,,0.00,weatherlink.com 1.10,2013-05-04 20:03:00,
2013-05-04 16:18:00,64.2,49.0,30.19,East,95,2.0,3.0,59,0.00,,,0.00,weatherlink.com 1.10,2013-05-04 20:18:00,
2013-05-04 16:33:00,64.0,49.0,30.19,SSE,151,0.0,3.0,58,0.00,,,0.00,weatherlink.com 1.10,2013-05-04 20:33:00,
2013-05-04 16:49:00,64.8,52.0,30.18,ESE,103,6.0,10.0,63,0.00,,,0.00,weatherlink.com 1.10,2013-05-04 20:49:00,
2013-05-04 17:03:00,64.7,52.0,30.18,East,82,5.0,7.0,63,0.00,,,0.00,weatherlink.com 1.10,2013-05-04 21:03:00,
2013-05-04 17:18:00,64.2,51.0,30.18,East,96,7.0,8.0,62,0.00,,,0.00,weatherlink.com 1.10,2013-05-04 21:18:00,
2013-05-04 17:33:00,63.6,51.0,30.18,ESE,117,8.0,14.0,63,0.00,,,0.00,weatherlink.com 1.10,2013-05-04 21:33:00,
2013-05-04 17:48:00,62.8,50.0,30.18,East,94,9.0,10.0,64,0.00,,,0.00,weatherlink.com 1.10,2013-05-04 21:48:00,
2013-05-04 18:03:00,62.3,49.0,30.18,East,85,10.0,10.0,63,0.00,,,0.00,weatherlink.com 1.10,2013-05-04 22:03:00,
2013-05-04 18:18:00,61.5,48.0,30.18,East,84,9.0,13.0,61,0.00,,,0.00,weatherlink.com 1.10,2013-05-04 22:18:00,
2013-05-04 18:33:00,61.0,49.0,30.18,East,90,12.0,13.0,65,0.00,,,0.00,weatherlink.com 1.10,2013-05-04 22:33:00,
2013-05-04 18:48:00,60.3,47.0,30.19,East,85,9.0,13.0,62,0.00,,,0.00,weatherlink.com 1.10,2013-05-04 22:48:00,
2013-05-04 19:03:00,59.7,49.0,30.19,East,84,10.0,14.0,67,0.00,,,0.00,weatherlink.com 1.10,2013-05-04 23:03:00,
2013-05-04 19:18:00,59.3,48.0,30.19,East,91,10.0,10.0,66,0.00,,,0.00,weatherlink.com 1.10,2013-05-04 23:18:00,
2013-05-04 19:33:00,58.9,46.0,30.19,East,79,8.0,11.0,63,0.00,,,0.00,weatherlink.com 1.10,2013-05-04 23:33:00,
2013-05-04 19:48:00,58.4,47.0,30.19,East,82,6.0,11.0,65,0.00,,,0.00,weatherlink.com 1.10,2013-05-04 23:48:00,
2013-05-04 20:03:00,58.1,48.0,30.20,East,92,7.0,12.0,69,0.00,,,0.00,weatherlink.com 1.10,2013-05-05 00:03:00,
2013-05-04 20:18:00,57.5,48.0,30.20,East,86,8.0,11.0,71,0.00,,,0.00,weatherlink.com 1.10,2013-05-05 00:18:00,
2013-05-04 20:33:00,56.9,48.0,30.20,East,79,7.0,15.0,71,0.00,,,0.00,weatherlink.com 1.10,2013-05-05 00:33:00,
2013-05-04 20:48:00,56.5,48.0,30.20,East,95,8.0,15.0,73,0.00,,,0.00,weatherlink.com 1.10,2013-05-05 00:48:00,
2013-05-04 21:03:00,56.0,46.0,30.21,East,89,9.0,11.0,68,0.00,,,0.00,weatherlink.com 1.10,2013-05-05 01:03:00,
2013-05-04 21:18:00,55.7,46.0,30.21,East,91,6.0,11.0,69,0.00,,,0.00,weatherlink.com 1.10,2013-05-05 01:18:00,
2013-05-04 21:33:00,55.2,45.0,30.22,ENE,78,2.0,9.0,69,0.00,,,0.00,weatherlink.com 1.10,2013-05-05 01:33:00,
2013-05-04 21:48:00,54.9,44.0,30.22,East,92,7.0,10.0,66,0.00,,,0.00,weatherlink.com 1.10,2013-05-05 01:48:00,
2013-05-04 22:03:00,54.8,44.0,30.23,East,87,8.0,10.0,66,0.00,,,0.00,weatherlink.com 1.10,2013-05-05 02:03:00,
2013-05-04 22:18:00,54.2,44.0,30.23,East,96,11.0,11.0,69,0.00,,,0.00,weatherlink.com 1.10,2013-05-05 02:18:00,
2013-05-04 22:33:00,53.6,45.0,30.23,East,91,7.0,11.0,73,0.00,,,0.00,weatherlink.com 1.10,2013-05-05 02:33:00,
2013-05-04 22:48:00,53.1,45.0,30.23,East,94,7.0,10.0,73,0.00,,,0.00,weatherlink.com 1.10,2013-05-05 02:48:00,
2013-05-04 23:03:00,52.7,45.0,30.23,East,86,6.0,11.0,75,0.00,,,0.00,weatherlink.com 1.10,2013-05-05 03:03:00,
2013-05-04 23:18:00,52.2,45.0,30.23,NE,41,2.0,9.0,77,0.00,,,0.00,weatherlink.com 1.10,2013-05-05 03:18:00,
2013-05-04 23:33:00,52.0,45.0,30.23,East,91,6.0,7.0,78,0.00,,,0.00,weatherlink.com 1.10,2013-05-05 03:33:00,
2013-05-04 23:48:00,51.7,46.0,30.23,NE,50,2.0,6.0,81,0.00,,,0.00,weatherlink.com 1.10,2013-05-05 03:48:00,